Bridge Lake, Canada
Current Conditions -  °F | °C
As of 5:00 AM on Thursday 30 Oct 2014 (Local Time) from CYIN Reporting Station
Clear Clear  
Wind Chill: 32°   Ceiling: Unl
Heat Index: 41°   Visibility: 9mi
Dew Point: 36°   Wind: 17mph
Humidity: 81%   Direction: 130°SE
Pressure: 29.98"   Gusts: 26mph
Location:  51.48°N, 120.7°W
Report Text: CYIN 301200Z AUTO 13015G23KT 9SM CLR 05/02 A2998 RMK SLP163
Loading
Personal Weather Stations






























Interactive Weather Map
Tropical Storm Tracking
New forecast layout! Learn more

10-Day Weather Forecast

Advertisements
Track Severe Weather on mobile